Time;durP1;ratioP1;P1;durP2;ratioP2;P2;SDS_P1;SDS_P2;PMS_P1;PMS_P2;Temp;Humidity;BMP_temperature;BMP_pressure;BME280_temperature;BME280_humidity;BME280_pressure;Samples;Min_cycle;Max_cycle;Signal;HPM_P1;HPM_P2
2023/05/25 00:02:03;;;;;;;10.75;5.03;;;7.50;99.90;;;;;;7321885;32;20597;-55
2023/05/25 00:06:06;;;;;;;12.70;5.47;;;7.40;99.90;;;;;;7316543;32;20135;-55
2023/05/25 00:10:08;;;;;;;6.85;4.95;;;7.40;99.90;;;;;;7316857;32;20116;-56
2023/05/25 00:14:10;;;;;;;11.70;4.95;;;7.40;99.90;;;;;;7319826;32;20637;-55
2023/05/25 00:18:12;;;;;;;8.15;4.82;;;7.30;99.90;;;;;;7301298;32;20438;-57
2023/05/25 00:22:13;;;;;;;9.10;5.35;;;7.20;99.90;;;;;;7302077;32;20397;-56
2023/05/25 00:26:15;;;;;;;10.35;5.12;;;7.20;99.90;;;;;;7321200;32;20134;-55
2023/05/25 00:30:17;;;;;;;11.82;5.28;;;7.10;99.90;;;;;;7317576;32;20544;-55
2023/05/25 00:34:19;;;;;;;12.13;5.25;;;7.10;99.90;;;;;;7316323;32;20331;-55
2023/05/25 00:38:21;;;;;;;11.88;5.30;;;7.10;99.90;;;;;;7316052;32;20153;-55
2023/05/25 00:42:23;;;;;;;10.48;4.65;;;6.90;99.90;;;;;;7327722;32;20550;-55
2023/05/25 00:46:26;;;;;;;10.25;5.37;;;6.90;99.90;;;;;;7317380;32;20270;-55
2023/05/25 00:50:40;;;;;;;14.35;5.30;;;6.90;99.90;;;;;;7311789;32;20356;-54
2023/05/25 00:54:46;;;;;;;15.85;5.75;;;6.90;99.90;;;;;;7324647;32;20714;-57
2023/05/25 00:58:52;;;;;;;11.30;5.53;;;6.80;99.90;;;;;;7306299;32;20213;-56
2023/05/25 01:02:58;;;;;;;13.57;6.07;;;6.80;99.90;;;;;;7305484;32;20233;-55
2023/05/25 01:07:01;;;;;;;10.15;5.43;;;6.80;99.90;;;;;;7309642;32;20672;-55
2023/05/25 01:11:05;;;;;;;10.20;5.43;;;6.80;99.90;;;;;;7323662;32;20270;-56
2023/05/25 01:15:08;;;;;;;10.00;5.68;;;6.60;99.90;;;;;;7322727;32;20462;-55
2023/05/25 01:19:10;;;;;;;10.52;5.85;;;6.70;99.90;;;;;;7328626;32;20513;-55
2023/05/25 01:23:16;;;;;;;9.20;5.50;;;6.60;99.90;;;;;;7320924;32;20235;-57
2023/05/25 01:27:31;;;;;;;10.77;5.05;;;6.60;99.90;;;;;;7325974;32;20115;-54
2023/05/25 01:31:34;;;;;;;10.18;5.47;;;6.50;99.90;;;;;;7328123;32;20111;-54
2023/05/25 01:35:38;;;;;;;11.12;4.78;;;6.40;99.90;;;;;;7324067;32;20104;-55
2023/05/25 01:39:40;;;;;;;11.48;5.05;;;6.40;99.90;;;;;;7310781;32;20183;-55
2023/05/25 01:43:43;;;;;;;12.43;5.25;;;6.40;99.90;;;;;;7322461;32;20161;-57
2023/05/25 01:48:22;;;;;;;11.07;4.78;;;6.40;99.90;;;;;;7325960;32;20232;-55
2023/05/25 01:52:32;;;;;;;9.68;4.80;;;6.40;99.90;;;;;;7298968;32;20236;-55
2023/05/25 01:56:36;;;;;;;10.60;5.43;;;6.40;99.90;;;;;;7324226;32;20175;-55
2023/05/25 02:00:40;;;;;;;6.80;4.85;;;6.30;99.90;;;;;;7309339;32;20138;-55
2023/05/25 02:04:42;;;;;;;12.10;4.78;;;6.30;99.90;;;;;;7323150;32;20243;-56
2023/05/25 02:08:45;;;;;;;7.07;4.82;;;6.30;99.90;;;;;;7329179;32;20202;-55
2023/05/25 02:12:46;;;;;;;9.77;5.47;;;6.30;99.90;;;;;;7323160;32;20134;-54
2023/05/25 02:16:48;;;;;;;13.20;5.93;;;6.20;99.90;;;;;;7326148;32;20658;-55
2023/05/25 02:20:50;;;;;;;12.35;5.97;;;6.10;99.90;;;;;;7333687;32;20107;-54
2023/05/25 02:24:52;;;;;;;12.35;5.55;;;6.10;99.90;;;;;;7328141;32;20158;-56
2023/05/25 02:28:54;;;;;;;12.27;5.57;;;6.10;99.90;;;;;;7331305;32;20717;-55
2023/05/25 02:32:56;;;;;;;11.23;5.37;;;6.20;99.90;;;;;;7330812;32;20115;-55
2023/05/25 02:36:58;;;;;;;12.07;6.15;;;6.10;99.90;;;;;;7325819;32;20129;-55
2023/05/25 02:40:59;;;;;;;10.93;6.10;;;6.10;99.90;;;;;;7325013;32;20162;-55
2023/05/25 02:45:01;;;;;;;12.90;5.80;;;6.10;99.90;;;;;;7323659;32;20204;-54
2023/05/25 02:49:04;;;;;;;14.60;6.53;;;6.10;99.90;;;;;;7319873;32;20587;-54
2023/05/25 02:53:06;;;;;;;8.90;5.62;;;6.10;99.90;;;;;;7326315;32;20575;-58
2023/05/25 02:57:09;;;;;;;9.05;5.10;;;6.00;99.90;;;;;;7326744;32;20214;-56
2023/05/25 03:01:17;;;;;;;13.40;6.00;;;6.00;99.90;;;;;;7323966;32;20095;-56
2023/05/25 03:05:19;;;;;;;13.15;5.82;;;6.00;99.90;;;;;;7332684;32;20115;-56
2023/05/25 03:09:21;;;;;;;12.40;6.70;;;6.00;99.90;;;;;;7320760;32;20186;-55
2023/05/25 03:13:23;;;;;;;9.90;5.78;;;5.90;99.90;;;;;;7320928;32;20135;-55
2023/05/25 03:17:25;;;;;;;9.52;5.40;;;5.90;99.90;;;;;;7325582;32;21291;-55
2023/05/25 03:21:27;;;;;;;15.07;6.50;;;5.90;99.90;;;;;;7325334;32;20154;-55
2023/05/25 03:25:28;;;;;;;10.35;6.62;;;5.90;99.90;;;;;;7306286;32;20269;-53
2023/05/25 03:29:30;;;;;;;12.68;6.07;;;5.90;99.90;;;;;;7318263;32;20405;-54
2023/05/25 03:33:32;;;;;;;14.75;6.80;;;5.90;99.90;;;;;;7332916;32;20498;-55
2023/05/25 03:37:34;;;;;;;11.02;6.45;;;5.90;99.90;;;;;;7316975;32;20449;-55
2023/05/25 03:41:37;;;;;;;12.00;6.37;;;5.90;99.90;;;;;;7322904;32;20564;-55
2023/05/25 03:45:38;;;;;;;13.00;7.57;;;5.90;99.90;;;;;;7318530;32;20100;-53
2023/05/25 03:49:40;;;;;;;12.75;7.15;;;5.90;99.90;;;;;;7327775;32;20491;-54
2023/05/25 03:53:42;;;;;;;12.10;7.25;;;5.90;99.90;;;;;;7320409;32;20478;-55
2023/05/25 03:57:44;;;;;;;14.30;7.30;;;5.90;99.90;;;;;;7327756;32;20252;-54
2023/05/25 04:01:46;;;;;;;13.80;7.87;;;6.10;99.90;;;;;;7309143;32;20112;-54
2023/05/25 04:05:48;;;;;;;14.00;6.97;;;6.10;99.90;;;;;;7310207;32;20112;-55
2023/05/25 04:09:50;;;;;;;12.60;6.90;;;6.20;99.90;;;;;;7328977;32;20187;-54
2023/05/25 04:13:52;;;;;;;12.70;7.25;;;6.20;99.90;;;;;;7323569;32;20118;-54
2023/05/25 04:17:54;;;;;;;13.88;6.78;;;6.30;99.90;;;;;;7324269;32;20107;-54
2023/05/25 04:21:56;;;;;;;10.85;6.72;;;6.40;99.90;;;;;;7328359;32;20540;-54
2023/05/25 04:25:58;;;;;;;12.43;6.82;;;6.50;99.90;;;;;;7327510;32;20129;-55
2023/05/25 04:30:01;;;;;;;13.80;8.40;;;6.60;99.90;;;;;;7325910;32;20119;-54
2023/05/25 04:34:03;;;;;;;16.52;8.82;;;6.90;99.90;;;;;;7321176;32;20143;-55
2023/05/25 04:38:05;;;;;;;13.27;8.13;;;7.10;99.90;;;;;;7332455;32;20250;-54
2023/05/25 04:42:07;;;;;;;16.40;9.07;;;7.40;99.90;;;;;;7316913;32;20178;-54
2023/05/25 04:46:10;;;;;;;14.05;8.77;;;7.80;99.90;;;;;;7329756;32;20525;-55
2023/05/25 04:50:12;;;;;;;15.68;8.60;;;8.30;99.90;;;;;;7328959;32;20179;-56
2023/05/25 04:54:14;;;;;;;14.87;8.63;;;8.70;99.90;;;;;;7325290;32;20229;-56
2023/05/25 04:58:16;;;;;;;17.85;8.98;;;9.00;99.90;;;;;;7331597;32;20224;-55
2023/05/25 05:02:18;;;;;;;18.80;11.05;;;9.60;99.90;;;;;;7326408;32;20138;-55
2023/05/25 05:06:20;;;;;;;16.80;9.48;;;10.00;99.90;;;;;;7314869;32;20103;-55
2023/05/25 05:10:22;;;;;;;18.85;9.52;;;10.60;99.90;;;;;;7332437;32;20175;-55
2023/05/25 05:14:24;;;;;;;19.80;11.35;;;10.70;99.90;;;;;;7317259;32;20183;-55
2023/05/25 05:18:27;;;;;;;15.77;8.20;;;11.20;99.90;;;;;;7330952;32;20133;-56
2023/05/25 05:22:31;;;;;;;13.88;7.93;;;11.40;99.90;;;;;;7338214;32;20130;-56
2023/05/25 05:26:33;;;;;;;12.27;7.87;;;12.00;99.90;;;;;;7327021;32;20131;-56
2023/05/25 05:30:55;;;;;;;17.40;8.35;;;12.50;99.90;;;;;;7327565;32;20207;-55
2023/05/25 05:34:57;;;;;;;15.07;9.45;;;12.50;99.90;;;;;;7329312;32;20157;-56
2023/05/25 05:38:59;;;;;;;21.42;8.65;;;11.80;99.90;;;;;;7332858;32;20283;-56
2023/05/25 05:43:01;;;;;;;14.75;7.85;;;12.00;99.90;;;;;;7325813;32;20115;-56
2023/05/25 05:47:03;;;;;;;15.32;8.20;;;12.60;99.90;;;;;;7325540;32;20560;-56
2023/05/25 05:51:06;;;;;;;27.83;9.63;;;12.90;99.90;;;;;;7328551;32;20206;-55
2023/05/25 05:55:08;;;;;;;17.52;8.88;;;12.40;99.90;;;;;;7323828;32;20126;-55
2023/05/25 05:59:10;;;;;;;14.38;8.48;;;11.80;99.90;;;;;;7327378;32;20141;-55
2023/05/25 06:03:12;;;;;;;16.20;9.57;;;11.60;99.90;;;;;;7315046;32;20108;-57
2023/05/25 06:07:14;;;;;;;16.48;8.40;;;11.50;99.90;;;;;;7330626;32;20433;-56
2023/05/25 06:11:16;;;;;;;15.68;9.13;;;12.10;99.90;;;;;;7329228;32;20892;-56
2023/05/25 06:15:17;;;;;;;14.75;8.50;;;12.40;99.90;;;;;;7322147;32;20106;-55
2023/05/25 06:19:19;;;;;;;17.08;7.65;;;13.50;99.90;;;;;;7326619;32;20107;-56
2023/05/25 06:23:21;;;;;;;16.12;8.50;;;14.00;99.90;;;;;;7328412;32;20135;-55
2023/05/25 06:27:23;;;;;;;17.02;7.70;;;13.90;99.90;;;;;;7329437;32;20636;-56
2023/05/25 06:31:25;;;;;;;16.75;7.40;;;14.30;99.90;;;;;;7327566;32;20922;-56
2023/05/25 06:35:27;;;;;;;18.00;8.35;;;14.60;99.90;;;;;;7329986;32;20297;-56
2023/05/25 06:39:30;;;;;;;14.60;7.25;;;15.20;99.90;;;;;;7329029;32;20229;-56
2023/05/25 06:43:32;;;;;;;16.50;7.15;;;15.60;99.90;;;;;;7322256;32;20174;-55
2023/05/25 06:47:34;;;;;;;13.65;7.15;;;15.70;99.90;;;;;;7320596;32;20103;-56
2023/05/25 06:51:36;;;;;;;14.95;7.70;;;15.20;99.90;;;;;;7318754;32;20202;-57
2023/05/25 06:55:38;;;;;;;16.33;7.40;;;13.80;99.90;;;;;;7327889;32;20154;-57
2023/05/25 06:59:40;;;;;;;15.73;6.70;;;15.30;99.90;;;;;;7323678;32;20998;-57
2023/05/25 07:03:42;;;;;;;17.15;8.00;;;16.20;99.90;;;;;;7317117;32;20261;-57
2023/05/25 07:07:44;;;;;;;17.60;9.25;;;15.50;99.90;;;;;;7318956;32;20194;-57
2023/05/25 07:11:45;;;;;;;18.70;8.48;;;14.80;99.90;;;;;;7307470;32;20194;-55
2023/05/25 07:15:47;;;;;;;17.75;9.55;;;13.80;99.90;;;;;;7324911;32;20172;-55
2023/05/25 07:19:49;;;;;;;16.98;9.20;;;13.60;99.90;;;;;;7329852;32;20852;-56
2023/05/25 07:23:51;;;;;;;16.08;8.70;;;13.80;99.90;;;;;;7332420;32;20481;-56
2023/05/25 07:27:54;;;;;;;20.80;8.88;;;13.30;99.90;;;;;;7325581;32;20137;-56
2023/05/25 07:31:55;;;;;;;16.15;9.57;;;13.80;99.90;;;;;;7330237;32;20687;-56
2023/05/25 07:35:57;;;;;;;22.20;9.93;;;14.10;99.90;;;;;;7329699;32;20253;-56
2023/05/25 07:39:59;;;;;;;18.12;9.38;;;13.30;99.90;;;;;;7324095;32;20562;-56
2023/05/25 07:44:01;;;;;;;17.92;9.13;;;13.60;99.90;;;;;;7335609;32;20674;-56
2023/05/25 07:48:05;;;;;;;17.48;9.02;;;13.80;99.90;;;;;;7329501;32;20194;-56
2023/05/25 07:52:08;;;;;;;17.52;8.68;;;13.90;99.90;;;;;;7331679;32;20767;-56
2023/05/25 07:56:09;;;;;;;18.30;7.70;;;13.70;99.90;;;;;;7330431;32;20218;-56
2023/05/25 08:00:12;;;;;;;19.65;7.93;;;14.10;99.90;;;;;;7320786;32;20238;-55
2023/05/25 08:04:14;;;;;;;11.52;7.03;;;14.40;99.90;;;;;;7333748;32;20506;-56
2023/05/25 08:08:16;;;;;;;15.98;8.25;;;14.40;99.90;;;;;;7320662;32;20611;-56
2023/05/25 08:12:17;;;;;;;14.68;7.87;;;14.30;99.90;;;;;;7327425;32;20111;-56
2023/05/25 08:16:38;;;;;;;13.75;7.90;;;14.50;99.90;;;;;;7328752;32;20184;-56
2023/05/25 08:20:40;;;;;;;20.80;8.25;;;14.50;99.90;;;;;;7324981;32;20107;-56
2023/05/25 08:24:44;;;;;;;18.77;7.37;;;14.70;99.90;;;;;;7333021;32;20608;-55
2023/05/25 08:28:45;;;;;;;14.13;6.90;;;14.50;99.90;;;;;;7324622;32;20875;-55
2023/05/25 08:32:47;;;;;;;11.93;6.43;;;14.50;99.90;;;;;;7329280;32;20162;-56
2023/05/25 08:36:49;;;;;;;14.02;5.55;;;15.30;99.90;;;;;;7325108;32;20169;-56
2023/05/25 08:41:05;;;;;;;12.05;5.87;;;16.80;99.90;;;;;;7332042;32;20136;-56
2023/05/25 08:45:08;;;;;;;12.65;6.00;;;17.50;99.90;;;;;;7324911;32;20133;-55
2023/05/25 08:49:17;;;;;;;15.27;5.35;;;16.40;99.90;;;;;;7326935;32;20107;-56
2023/05/25 08:53:21;;;;;;;10.82;4.80;;;17.10;99.90;;;;;;7331542;32;20589;-56
2023/05/25 08:57:30;;;;;;;9.88;4.40;;;18.30;99.90;;;;;;7325427;32;20191;-55
2023/05/25 09:01:38;;;;;;;14.52;4.47;;;19.00;99.90;;;;;;7314765;32;20107;-56
2023/05/25 09:05:40;;;;;;;12.25;4.60;;;18.70;99.90;;;;;;7328936;32;20142;-56
2023/05/25 09:09:42;;;;;;;11.65;4.00;;;17.50;99.90;;;;;;7331130;32;20386;-55
2023/05/25 09:13:44;;;;;;;12.50;4.72;;;18.20;99.90;;;;;;7332760;32;20458;-55
2023/05/25 09:17:46;;;;;;;9.38;4.18;;;16.90;99.90;;;;;;7325554;32;20214;-54
2023/05/25 09:21:48;;;;;;;6.70;3.58;;;17.20;99.90;;;;;;7327215;32;20782;-55
2023/05/25 09:25:57;;;;;;;10.68;3.92;;;18.10;99.90;;;;;;7331190;32;20225;-56
2023/05/25 09:30:01;;;;;;;11.60;4.10;;;18.40;99.90;;;;;;7334971;32;20119;-55
2023/05/25 09:34:09;;;;;;;6.87;3.40;;;18.30;99.90;;;;;;7335380;32;20162;-55
2023/05/25 09:38:15;;;;;;;11.05;3.80;;;18.10;99.90;;;;;;7329112;32;20655;-55
2023/05/25 09:42:17;;;;;;;9.40;3.85;;;17.60;99.90;;;;;;7337096;32;20206;-55
2023/05/25 09:46:19;;;;;;;11.00;4.25;;;16.30;99.90;;;;;;7325425;32;20107;-55
2023/05/25 09:50:21;;;;;;;10.73;4.15;;;15.90;99.90;;;;;;7332190;32;20135;-55
2023/05/25 09:54:25;;;;;;;7.55;3.53;;;16.40;99.90;;;;;;7333555;32;20569;-56
2023/05/25 09:58:27;;;;;;;8.85;3.72;;;17.10;99.90;;;;;;7336641;32;20261;-55
2023/05/25 10:02:29;;;;;;;8.73;3.37;;;17.40;99.90;;;;;;7320020;32;20128;-55
2023/05/25 10:06:37;;;;;;;9.77;4.35;;;17.40;99.90;;;;;;7325484;32;20175;-55
2023/05/25 10:10:41;;;;;;;7.95;4.30;;;17.30;99.90;;;;;;7322878;32;20240;-56
2023/05/25 10:14:45;;;;;;;8.23;4.32;;;16.70;99.90;;;;;;7328330;32;20929;-54
2023/05/25 10:19:07;;;;;;;9.80;4.10;;;16.80;99.90;;;;;;7331449;32;20228;-56
2023/05/25 10:23:11;;;;;;;8.20;3.50;;;17.00;99.90;;;;;;7317432;32;20120;-56
2023/05/25 10:27:18;;;;;;;7.65;3.75;;;17.30;99.90;;;;;;7314990;32;20139;-55
2023/05/25 10:31:41;;;;;;;8.50;4.05;;;17.60;99.90;;;;;;7328282;32;20261;-56
2023/05/25 10:35:43;;;;;;;8.43;4.57;;;17.60;99.90;;;;;;7324795;32;20267;-56
2023/05/25 10:40:07;;;;;;;10.10;4.53;;;17.40;99.90;;;;;;7329404;32;20446;-55
2023/05/25 10:44:10;;;;;;;7.18;4.12;;;17.10;99.90;;;;;;7332092;32;20202;-56
2023/05/25 10:48:12;;;;;;;7.07;3.40;;;17.00;99.90;;;;;;7337190;32;20146;-56
2023/05/25 10:52:17;;;;;;;10.27;3.85;;;17.70;99.90;;;;;;7334844;32;20135;-55
2023/05/25 10:56:19;;;;;;;9.05;4.07;;;17.60;99.90;;;;;;7323214;32;20148;-55
2023/05/25 11:00:21;;;;;;;8.43;4.10;;;17.40;99.90;;;;;;7325539;32;20334;-56
2023/05/25 11:04:23;;;;;;;9.50;4.72;;;18.10;99.90;;;;;;7305504;32;20130;-56
2023/05/25 11:08:53;;;;;;;8.30;4.15;;;18.00;99.90;;;;;;7318857;32;20241;-56
2023/05/25 11:13:20;;;;;;;6.12;3.58;;;18.10;99.90;;;;;;7321732;32;20556;-56
2023/05/25 11:17:23;;;;;;;9.80;4.00;;;18.50;99.90;;;;;;7325072;32;20112;-56
2023/05/25 11:21:31;;;;;;;9.77;4.00;;;18.40;99.90;;;;;;7326135;32;21201;-55
2023/05/25 11:25:40;;;;;;;9.95;4.68;;;18.10;99.90;;;;;;7319748;32;20135;-57
2023/05/25 11:29:49;;;;;;;8.38;3.75;;;18.20;99.90;;;;;;7318688;32;20131;-55
2023/05/25 11:33:56;;;;;;;5.68;3.50;;;17.10;99.90;;;;;;7321497;32;20158;-55
2023/05/25 11:37:59;;;;;;;10.87;4.63;;;17.10;99.90;;;;;;7328060;32;20132;-55
2023/05/25 11:42:03;;;;;;;8.20;3.62;;;16.80;99.90;;;;;;7325341;32;20120;-54
2023/05/25 11:46:09;;;;;;;9.85;4.50;;;16.80;99.90;;;;;;7327154;32;20190;-54
2023/05/25 11:50:20;;;;;;;8.82;4.30;;;16.60;99.90;;;;;;7316555;32;20961;-55
2023/05/25 11:54:26;;;;;;;8.57;4.47;;;17.50;99.90;;;;;;7314079;32;22467;-55
2023/05/25 11:58:34;;;;;;;10.75;4.55;;;16.80;99.90;;;;;;7322689;32;20231;-55
2023/05/25 12:02:37;;;;;;;15.60;4.95;;;17.00;99.90;;;;;;7319237;32;20191;-56
2023/05/25 12:06:40;;;;;;;11.00;4.47;;;17.20;99.90;;;;;;7323407;32;20251;-56
2023/05/25 12:10:51;;;;;;;10.10;4.43;;;16.90;99.90;;;;;;7323777;32;20521;-56
2023/05/25 12:14:52;;;;;;;9.75;3.87;;;17.60;99.90;;;;;;7325981;32;20629;-56
2023/05/25 12:18:56;;;;;;;9.07;4.03;;;17.80;99.90;;;;;;7327632;32;20357;-56
2023/05/25 12:22:58;;;;;;;7.15;4.87;;;18.10;99.90;;;;;;7326490;32;20491;-55
2023/05/25 12:27:01;;;;;;;10.10;4.12;;;18.40;99.90;;;;;;7325377;32;20679;-56
2023/05/25 12:31:22;;;;;;;9.63;4.22;;;17.60;99.90;;;;;;7331331;32;20114;-57
2023/05/25 12:35:25;;;;;;;7.85;4.78;;;17.50;99.90;;;;;;7327583;32;20593;-56
2023/05/25 12:39:29;;;;;;;13.98;4.70;;;16.80;99.90;;;;;;7330329;32;20199;-56
2023/05/25 12:43:42;;;;;;;8.27;4.10;;;16.40;99.90;;;;;;7315444;32;20126;-56
2023/05/25 12:47:44;;;;;;;8.48;3.78;;;16.40;99.90;;;;;;7339359;32;20211;-56
2023/05/25 12:51:46;;;;;;;7.47;3.67;;;17.40;99.90;;;;;;7332069;32;20113;-55
2023/05/25 12:55:48;;;;;;;8.13;4.12;;;17.80;99.90;;;;;;7334026;32;20198;-56
2023/05/25 12:59:55;;;;;;;6.57;3.47;;;17.60;99.90;;;;;;7331829;32;20205;-56
2023/05/25 13:03:57;;;;;;;9.13;4.30;;;18.60;99.90;;;;;;7330113;32;21656;-55
2023/05/25 13:08:00;;;;;;;10.10;4.28;;;18.60;99.90;;;;;;7327566;32;20706;-55
2023/05/25 13:12:03;;;;;;;8.75;4.12;;;18.60;99.90;;;;;;7335515;32;20515;-56
2023/05/25 13:16:05;;;;;;;11.75;4.45;;;17.50;99.90;;;;;;7328264;32;20166;-56
2023/05/25 13:20:07;;;;;;;6.20;4.07;;;17.10;99.90;;;;;;7335458;32;20219;-56
2023/05/25 13:24:09;;;;;;;11.75;4.28;;;17.10;99.90;;;;;;7332905;32;20688;-56
2023/05/25 13:28:11;;;;;;;10.02;4.60;;;17.70;99.90;;;;;;7327694;32;20256;-56
2023/05/25 13:32:13;;;;;;;9.13;4.60;;;17.50;99.90;;;;;;7318847;32;20135;-56
2023/05/25 13:36:14;;;;;;;9.88;4.37;;;17.50;99.90;;;;;;7335434;32;20568;-56
2023/05/25 13:40:16;;;;;;;9.27;3.60;;;17.50;99.90;;;;;;7330704;32;20678;-56
2023/05/25 13:44:18;;;;;;;8.63;4.50;;;18.00;99.90;;;;;;7327465;32;20148;-56
2023/05/25 13:48:20;;;;;;;9.18;4.30;;;18.40;99.90;;;;;;7331886;32;20823;-56
2023/05/25 13:52:22;;;;;;;13.57;4.43;;;17.10;99.90;;;;;;7335907;32;20227;-56
2023/05/25 13:56:24;;;;;;;8.00;3.90;;;16.90;99.90;;;;;;7314811;32;20242;-57
2023/05/25 14:00:26;;;;;;;10.00;4.15;;;17.60;99.90;;;;;;7321479;32;20218;-57
2023/05/25 14:04:28;;;;;;;9.50;4.30;;;17.40;99.90;;;;;;7320937;32;20207;-56
2023/05/25 14:08:30;;;;;;;10.75;4.62;;;17.20;99.90;;;;;;7312456;32;20217;-56
2023/05/25 14:12:32;;;;;;;7.53;5.25;;;17.50;99.90;;;;;;7323728;32;20119;-56
2023/05/25 14:16:37;;;;;;;9.20;4.35;;;17.10;99.90;;;;;;7318794;32;20134;-56
2023/05/25 14:20:41;;;;;;;8.50;3.87;;;18.30;99.90;;;;;;7321701;32;20470;-56
2023/05/25 14:24:43;;;;;;;11.12;4.32;;;19.40;99.90;;;;;;7320215;32;20134;-56
2023/05/25 14:28:45;;;;;;;7.90;3.50;;;21.10;99.90;;;;;;7310675;32;20258;-56
2023/05/25 14:32:47;;;;;;;9.82;3.70;;;21.70;99.90;;;;;;7323084;32;20265;-55
2023/05/25 14:36:49;;;;;;;9.85;4.60;;;21.30;99.90;;;;;;7320470;32;20163;-56
2023/05/25 14:40:50;;;;;;;8.82;3.78;;;19.10;99.90;;;;;;7318025;32;20225;-59
2023/05/25 14:44:52;;;;;;;10.10;3.60;;;18.20;99.90;;;;;;7316835;32;20189;-59
2023/05/25 14:48:54;;;;;;;8.75;4.15;;;19.00;99.90;;;;;;7318692;32;20115;-59
2023/05/25 14:52:56;;;;;;;13.77;4.47;;;19.60;99.90;;;;;;7318895;32;20104;-57
2023/05/25 14:57:00;;;;;;;10.18;4.18;;;19.50;99.90;;;;;;7317068;32;20602;-58
2023/05/25 15:01:03;;;;;;;7.43;3.60;;;19.30;99.90;;;;;;7316092;32;21729;-58
2023/05/25 15:05:06;;;;;;;12.57;3.75;;;20.10;99.90;;;;;;7318376;32;20107;-59
2023/05/25 15:09:08;;;;;;;7.85;4.28;;;19.30;99.90;;;;;;7319495;32;20217;-55
2023/05/25 15:13:10;;;;;;;9.38;4.57;;;18.00;99.90;;;;;;7318480;32;20165;-54
2023/05/25 15:17:14;;;;;;;11.77;4.10;;;17.20;99.90;;;;;;7313726;32;22254;-55
2023/05/25 15:21:16;;;;;;;11.45;5.10;;;17.10;99.90;;;;;;7318894;32;20861;-55
2023/05/25 15:25:17;;;;;;;13.38;4.25;;;17.30;99.90;;;;;;7320019;32;20654;-55
2023/05/25 15:29:35;;;;;;;;;;;17.40;99.90;;;;;;7311823;32;20115;-55
2023/05/25 15:33:39;;;;;;;10.07;3.75;;;17.70;99.90;;;;;;7326975;32;20115;-55
2023/05/25 15:37:55;;;;;;;7.37;3.30;;;18.00;99.90;;;;;;7323278;32;20709;-55
2023/05/25 15:41:56;;;;;;;9.50;4.30;;;17.80;99.90;;;;;;7306926;32;20343;-55
2023/05/25 15:45:58;;;;;;;10.38;4.70;;;17.30;99.90;;;;;;7326727;32;20664;-56
2023/05/25 15:50:01;;;;;;;12.65;4.22;;;17.10;99.90;;;;;;7314601;32;20158;-54
2023/05/25 15:54:02;;;;;;;10.50;3.97;;;16.70;99.90;;;;;;7330630;32;20272;-54
2023/05/25 15:58:04;;;;;;;8.95;3.85;;;16.80;99.90;;;;;;7327887;32;20143;-55
2023/05/25 16:02:06;;;;;;;7.45;2.87;;;17.00;99.90;;;;;;7330554;32;20180;-55
2023/05/25 16:06:09;;;;;;;10.05;3.37;;;17.30;99.90;;;;;;7323468;32;20282;-55
2023/05/25 16:10:10;;;;;;;11.05;3.87;;;17.50;99.90;;;;;;7325909;32;20755;-55
2023/05/25 16:14:12;;;;;;;9.40;4.87;;;17.50;99.90;;;;;;7327191;32;20123;-55
2023/05/25 16:18:15;;;;;;;7.87;4.07;;;17.00;99.90;;;;;;7322587;32;20104;-55
2023/05/25 16:22:18;;;;;;;7.32;3.90;;;17.00;99.90;;;;;;7327948;32;20576;-56
2023/05/25 16:26:21;;;;;;;10.27;3.80;;;16.70;99.90;;;;;;7341684;32;20116;-56
2023/05/25 16:30:23;;;;;;;10.18;3.45;;;16.50;99.90;;;;;;7325249;32;20258;-56
2023/05/25 16:34:25;;;;;;;11.80;5.00;;;16.50;99.90;;;;;;7338601;32;20536;-57
2023/05/25 16:38:27;;;;;;;10.00;4.35;;;16.70;99.90;;;;;;7343873;32;20123;-57
2023/05/25 16:42:28;;;;;;;8.18;3.80;;;16.70;99.90;;;;;;7341907;32;20111;-57
2023/05/25 16:46:31;;;;;;;11.68;3.67;;;16.90;99.90;;;;;;7341051;32;20126;-56
2023/05/25 16:50:33;;;;;;;10.18;3.53;;;16.80;99.90;;;;;;7342336;32;20236;-54
2023/05/25 16:54:35;;;;;;;9.65;2.95;;;16.80;99.90;;;;;;7339308;32;20213;-56
2023/05/25 16:58:37;;;;;;;5.93;2.92;;;16.80;99.90;;;;;;7343971;32;20453;-55
2023/05/25 17:02:38;;;;;;;9.75;3.60;;;16.80;99.90;;;;;;7339561;32;20198;-55
2023/05/25 17:06:40;;;;;;;13.57;5.78;;;17.00;99.90;;;;;;7339105;32;20279;-55
2023/05/25 17:10:47;;;;;;;10.10;3.53;;;17.10;99.90;;;;;;7344719;32;20477;-55
2023/05/25 17:14:49;;;;;;;7.87;3.10;;;16.90;99.90;;;;;;7320416;32;20126;-56
2023/05/25 17:18:51;;;;;;;12.73;3.55;;;16.80;99.90;;;;;;7340635;32;20139;-55
2023/05/25 17:22:53;;;;;;;11.05;4.15;;;16.70;99.90;;;;;;7337710;32;20194;-56
2023/05/25 17:26:55;;;;;;;11.05;3.90;;;16.60;99.90;;;;;;7330830;32;20138;-55
2023/05/25 17:30:57;;;;;;;12.60;3.15;;;16.50;99.90;;;;;;7333611;32;20483;-54
2023/05/25 17:34:59;;;;;;;9.70;3.20;;;16.40;99.90;;;;;;7334373;32;20121;-55
2023/05/25 17:39:01;;;;;;;9.55;4.15;;;16.50;99.90;;;;;;7332146;32;20124;-55
2023/05/25 17:43:03;;;;;;;10.18;4.32;;;16.50;99.90;;;;;;7320357;32;20111;-55
2023/05/25 17:47:05;;;;;;;10.15;2.90;;;16.40;99.90;;;;;;7332317;32;20137;-56
2023/05/25 17:51:11;;;;;;;10.60;3.17;;;16.30;99.90;;;;;;7329911;32;20218;-56
2023/05/25 17:55:13;;;;;;;16.33;4.10;;;16.30;99.90;;;;;;7328932;32;20597;-56
2023/05/25 17:59:15;;;;;;;12.05;3.67;;;16.20;99.90;;;;;;7334481;32;20103;-56
2023/05/25 18:03:17;;;;;;;11.32;3.83;;;16.00;99.90;;;;;;7328392;32;20258;-56
2023/05/25 18:07:20;;;;;;;10.85;3.78;;;16.00;99.90;;;;;;7335581;32;20637;-56
2023/05/25 18:11:23;;;;;;;10.02;3.83;;;15.90;99.90;;;;;;7325411;32;20111;-55
2023/05/25 18:15:25;;;;;;;11.02;3.75;;;15.90;99.90;;;;;;7310799;32;20245;-55
2023/05/25 18:19:26;;;;;;;8.05;2.80;;;16.00;99.90;;;;;;7324841;32;20135;-55
2023/05/25 18:23:28;;;;;;;11.85;3.12;;;16.00;99.90;;;;;;7329254;32;20767;-55
2023/05/25 18:27:30;;;;;;;6.80;2.85;;;15.90;99.90;;;;;;7332500;32;20111;-55
2023/05/25 18:31:32;;;;;;;9.13;2.92;;;15.80;99.90;;;;;;7321027;32;20205;-55
2023/05/25 18:35:35;;;;;;;7.95;3.00;;;15.70;99.90;;;;;;7334458;32;20115;-55
2023/05/25 18:39:36;;;;;;;11.40;5.82;;;15.60;99.90;;;;;;7333533;32;20111;-55
2023/05/25 18:43:38;;;;;;;11.35;3.35;;;15.50;99.90;;;;;;7331133;32;20210;-55
2023/05/25 18:47:40;;;;;;;9.45;3.15;;;15.40;99.90;;;;;;7326866;32;20168;-55
2023/05/25 18:51:42;;;;;;;9.73;3.28;;;15.30;99.90;;;;;;7335078;32;20111;-54
2023/05/25 18:55:44;;;;;;;9.50;2.78;;;15.20;99.90;;;;;;7329495;32;20134;-55
2023/05/25 18:59:46;;;;;;;7.78;2.85;;;15.00;99.90;;;;;;7335308;32;20149;-55
2023/05/25 19:03:48;;;;;;;7.12;2.80;;;14.80;99.90;;;;;;7336044;32;20254;-55
2023/05/25 19:07:51;;;;;;;8.65;3.17;;;14.60;99.90;;;;;;7323947;32;20589;-55
2023/05/25 19:12:01;;;;;;;12.20;2.85;;;14.40;99.90;;;;;;7331883;32;20174;-55
2023/05/25 19:16:03;;;;;;;8.93;3.37;;;14.20;99.90;;;;;;7332681;32;20119;-55
2023/05/25 19:20:06;;;;;;;8.10;2.95;;;14.00;99.90;;;;;;7331766;32;20302;-55
2023/05/25 19:24:08;;;;;;;10.52;3.12;;;13.80;99.90;;;;;;7326243;32;20111;-56
2023/05/25 19:28:10;;;;;;;13.02;3.60;;;13.60;99.90;;;;;;7332671;32;20130;-55
2023/05/25 19:32:13;;;;;;;10.88;3.15;;;13.40;99.90;;;;;;7334795;32;20162;-58
2023/05/25 19:36:17;;;;;;;9.65;3.58;;;13.20;99.90;;;;;;7328305;32;20111;-56
2023/05/25 19:40:19;;;;;;;9.00;3.47;;;13.00;99.90;;;;;;7313446;32;20135;-56
2023/05/25 19:44:21;;;;;;;11.52;3.28;;;12.80;99.90;;;;;;7312048;32;20165;-55
2023/05/25 19:48:24;;;;;;;11.18;3.65;;;12.50;99.90;;;;;;7313942;32;21017;-55
2023/05/25 19:52:27;;;;;;;10.68;3.30;;;12.30;99.90;;;;;;7316999;32;20171;-54
2023/05/25 19:56:29;;;;;;;14.43;3.60;;;12.10;99.90;;;;;;7324569;32;20226;-55
2023/05/25 20:00:31;;;;;;;9.90;3.97;;;12.00;99.90;;;;;;7315856;32;20273;-55
2023/05/25 20:04:33;;;;;;;10.18;4.12;;;11.90;99.90;;;;;;7325920;32;20226;-55
2023/05/25 20:08:36;;;;;;;9.05;3.97;;;11.80;99.90;;;;;;7324456;32;20133;-56
2023/05/25 20:12:38;;;;;;;12.80;3.87;;;11.60;99.90;;;;;;7309128;32;20226;-55
2023/05/25 20:16:40;;;;;;;23.67;14.05;;;11.50;99.90;;;;;;7297964;32;20558;-54
2023/05/25 20:20:42;;;;;;;12.18;4.90;;;11.40;99.90;;;;;;7312479;32;20723;-55
2023/05/25 20:24:44;;;;;;;9.93;3.67;;;11.30;99.90;;;;;;7327350;32;20282;-55
2023/05/25 20:28:46;;;;;;;11.18;4.07;;;11.20;99.90;;;;;;7323807;32;20226;-54
2023/05/25 20:32:48;;;;;;;11.95;4.10;;;11.10;99.90;;;;;;7324443;32;20191;-53
2023/05/25 20:36:50;;;;;;;7.90;4.07;;;10.90;99.90;;;;;;7311412;32;20130;-54
2023/05/25 20:40:52;;;;;;;9.93;4.43;;;10.90;99.90;;;;;;7326214;32;20679;-53
2023/05/25 20:44:54;;;;;;;12.18;4.10;;;10.80;99.90;;;;;;7311229;32;20361;-53
2023/05/25 20:48:57;;;;;;;7.60;3.87;;;10.80;99.90;;;;;;7324237;32;20107;-53
2023/05/25 20:52:58;;;;;;;11.43;4.22;;;10.60;99.90;;;;;;7324456;32;20168;-53
2023/05/25 20:57:01;;;;;;;12.88;4.70;;;10.60;99.90;;;;;;7326182;32;20578;-54
2023/05/25 21:01:04;;;;;;;14.35;4.93;;;10.50;99.90;;;;;;7331739;32;20135;-54